Time;durP1;ratioP1;P1;durP2;ratioP2;P2;SDS_P1;SDS_P2;PMS_P1;PMS_P2;Temp;Humidity;BMP_temperature;BMP_pressure;BME280_temperature;BME280_humidity;BME280_pressure;Samples;Min_cycle;Max_cycle;Signal;HPM_P1;HPM_P2
2023/08/27 00:00:59;;;;;;;;;1.00;1.00;;;;;20.38;53.62;100628.09;5074601;27;45554;-68
2023/08/27 00:03:24;;;;;;;;;1.75;1.75;;;;;20.32;53.55;100608.16;5056260;28;53744;-68
2023/08/27 00:05:51;;;;;;;;;1.00;1.00;;;;;20.33;54.09;100617.91;5056821;28;46639;-67
2023/08/27 00:08:16;;;;;;;;;3.00;3.00;;;;;20.30;54.24;100612.94;5056912;28;45320;-72
2023/08/27 00:10:42;;;;;;;;;1.75;1.75;;;;;20.26;54.65;100624.38;5056878;28;45347;-68
2023/08/27 00:13:07;;;;;;;;;2.25;2.25;;;;;20.24;54.55;100616.50;5057855;28;45158;-67
2023/08/27 00:15:32;;;;;;;;;2.00;2.00;;;;;20.12;54.75;100591.19;5072054;27;45239;-70
2023/08/27 00:17:58;;;;;;;;;3.00;3.00;;;;;20.17;54.82;100604.88;5071668;28;45663;-67
2023/08/27 00:20:23;;;;;;;;;4.33;2.33;;;;;20.17;54.91;100607.56;5056682;28;45306;-68
2023/08/27 00:22:48;;;;;;;;;1.25;1.25;;;;;20.11;55.00;100599.47;5055363;28;45593;-68
2023/08/27 00:25:13;;;;;;;;;1.00;1.00;;;;;20.15;55.17;100620.44;5073671;27;66610;-68
2023/08/27 00:27:39;;;;;;;;;5.67;5.67;;;;;20.11;55.40;100608.41;5059955;28;45211;-69
2023/08/27 00:30:05;;;;;;;;;1.00;1.00;;;;;20.09;55.33;100618.59;5060005;28;45466;-69
2023/08/27 00:32:33;;;;;;;;;3.33;3.33;;;;;20.04;55.61;100615.69;5071522;28;45414;-69
2023/08/27 00:35:05;;;;;;;;;4.00;2.00;;;;;19.89;55.96;100594.31;5080114;28;46719;-68
2023/08/27 00:37:31;;;;;;;;;3.33;2.67;;;;;19.91;55.92;100591.41;5078779;28;45615;-68
2023/08/27 00:39:56;;;;;;;;;1.00;1.00;;;;;19.91;56.17;100602.19;5080044;27;45382;-68
2023/08/27 00:42:21;;;;;;;;;1.50;1.00;;;;;19.79;56.45;100593.06;5079687;28;54437;-68
2023/08/27 00:44:47;;;;;;;;;2.00;2.00;;;;;19.78;56.25;100604.88;5079856;28;46585;-68
2023/08/27 00:47:15;;;;;;;;;3.00;1.75;;;;;19.82;56.77;100606.97;5078877;27;45299;-69
2023/08/27 00:49:42;;;;;;;;;2.67;1.00;;;;;19.72;56.81;100593.06;5059669;28;45310;-68
2023/08/27 00:52:09;;;;;;;;;1.50;1.00;;;;;19.74;57.19;100604.47;5059933;28;45497;-68
2023/08/27 00:54:35;;;;;;;;;2.00;2.00;;;;;19.65;56.88;100595.78;5059409;28;46449;-69
2023/08/27 00:57:04;;;;;;;;;0.00;0.00;;;;;19.73;57.00;100608.22;5057587;28;45277;-69
2023/08/27 00:59:31;;;;;;;;;2.75;1.00;;;;;19.71;56.38;100616.53;5059568;28;45190;-69
2023/08/27 01:01:56;;;;;;;;;0.50;0.50;;;;;19.65;56.19;100620.06;5059390;28;45418;-68
2023/08/27 01:04:22;;;;;;;;;0.50;0.50;;;;;19.61;55.71;100620.66;5059230;28;57000;-69
2023/08/27 01:06:47;;;;;;;;;1.00;1.00;;;;;19.62;55.78;100627.69;5060075;28;48141;-68
2023/08/27 01:09:41;;;;;;;;;1.00;1.00;;;;;19.54;56.10;100609.88;5059632;28;45463;-68
2023/08/27 01:12:36;;;;;;;;;0.00;0.00;;;;;19.56;55.89;100606.97;5059635;28;45605;-68
2023/08/27 01:15:04;;;;;;;;;1.25;1.25;;;;;19.45;55.92;100605.69;5026008;28;45786;-69
2023/08/27 01:17:31;;;;;;;;;1.50;1.50;;;;;19.20;56.22;100564.16;5038791;28;45447;-67
2023/08/27 01:19:57;;;;;;;;;1.00;1.00;;;;;19.47;56.18;100619.78;5050540;28;45427;-68
2023/08/27 01:22:22;;;;;;;;;0.50;0.50;;;;;19.25;56.33;100578.69;5079775;27;45339;-67
2023/08/27 01:24:47;;;;;;;;;2.00;2.00;;;;;19.44;56.11;100623.72;5079390;27;45480;-68
2023/08/27 01:27:26;;;;;;;;;1.00;1.00;;;;;19.41;56.35;100621.41;5078118;27;45391;-68
2023/08/27 01:30:04;;;;;;;;;0.00;0.00;;;;;19.38;55.96;100616.44;5079528;27;45202;-68
2023/08/27 01:32:32;;;;;;;;;0.00;0.00;;;;;19.40;56.02;100610.84;5079203;28;45208;-69
2023/08/27 01:34:59;;;;;;;;;1.25;0.00;;;;;19.24;56.06;100586.97;5079099;28;45805;-68
2023/08/27 01:37:25;;;;;;;;;0.00;0.00;;;;;19.28;56.07;100599.84;5076761;27;45590;-68
2023/08/27 01:39:58;;;;;;;;;0.00;0.00;;;;;19.27;56.17;100605.44;5079196;28;45353;-69
2023/08/27 01:42:23;;;;;;;;;0.75;0.75;;;;;19.24;56.39;100595.91;5077865;28;45505;-68
2023/08/27 01:44:49;;;;;;;;;0.00;0.00;;;;;19.21;56.68;100603.53;5063928;27;46614;-67
2023/08/27 01:47:14;;;;;;;;;0.50;0.50;;;;;19.17;57.08;100603.13;5057974;28;55112;-68
2023/08/27 01:49:39;;;;;;;;;2.00;0.00;;;;;19.12;57.51;100601.03;5058952;28;45277;-67
2023/08/27 01:52:05;;;;;;;;;2.00;0.25;;;;;19.02;57.21;100592.53;5063419;28;45344;-68
2023/08/27 01:54:33;;;;;;;;;0.00;0.00;;;;;19.00;57.72;100586.50;5078835;27;46643;-68
2023/08/27 01:56:58;;;;;;;;;0.00;0.00;;;;;18.93;57.62;100574.88;5078922;27;45241;-67
2023/08/27 01:59:24;;;;;;;;;2.00;2.00;;;;;19.01;57.88;100585.44;5078360;28;50952;-67
2023/08/27 02:01:49;;;;;;;;;1.00;1.00;;;;;19.05;58.23;100602.91;5078856;27;45485;-67
2023/08/27 02:04:14;;;;;;;;;0.75;0.75;;;;;19.03;58.29;100607.66;5078674;27;45636;-68
2023/08/27 02:06:40;;;;;;;;;1.25;0.00;;;;;18.97;58.47;100599.53;5078776;28;45316;-66
2023/08/27 02:09:06;;;;;;;;;0.00;0.00;;;;;18.97;58.21;100597.66;5065627;27;45457;-66
2023/08/27 02:11:31;;;;;;;;;0.00;0.00;;;;;18.97;58.36;100603.06;5057492;28;45613;-67
2023/08/27 02:13:57;;;;;;;;;1.25;1.25;;;;;18.92;58.42;100593.94;5058279;28;46416;-68
2023/08/27 02:16:23;;;;;;;;;0.25;0.25;;;;;18.59;58.21;100539.91;5058151;28;45256;-68
2023/08/27 02:18:48;;;;;;;;;0.00;0.00;;;;;18.94;58.25;100606.16;5057749;28;45490;-67
2023/08/27 02:21:13;;;;;;;;;0.00;0.00;;;;;18.69;58.50;100564.63;5058529;28;45406;-67
2023/08/27 02:23:39;;;;;;;;;14.00;11.00;;;;;18.94;58.15;100611.56;5058066;28;45809;-69
2023/08/27 02:26:04;;;;;;;;;1.50;0.75;;;;;18.85;58.23;100610.09;5077437;27;61030;-68
2023/08/27 02:28:29;;;;;;;;;1.00;1.00;;;;;18.72;58.17;100591.16;5078281;27;45340;-68
2023/08/27 02:30:58;;;;;;;;;0.00;0.00;;;;;18.80;58.22;100607.13;5078626;27;45306;-66
2023/08/27 02:33:23;;;;;;;;;0.00;0.00;;;;;18.72;58.19;100605.47;5077813;27;47008;-68
2023/08/27 02:35:48;;;;;;;;;0.00;0.00;;;;;18.76;58.04;100611.28;5093866;27;47072;-67
2023/08/27 02:38:14;;;;;;;;;0.25;0.25;;;;;18.68;58.20;100592.59;5077061;27;45269;-68
2023/08/27 02:40:40;;;;;;;;;0.00;0.00;;;;;18.73;57.94;100596.34;5071217;27;45644;-68
2023/08/27 02:43:05;;;;;;;;;0.50;0.50;;;;;18.64;58.34;100583.28;5057624;28;47195;-67
2023/08/27 02:45:31;;;;;;;;;2.00;0.75;;;;;18.55;58.42;100571.78;5057167;28;55035;-68
2023/08/27 02:47:56;;;;;;;;;1.25;1.00;;;;;18.61;58.58;100589.00;5038483;28;45225;-68
2023/08/27 02:50:21;;;;;;;;;0.00;0.00;;;;;18.65;58.61;100601.91;5058056;28;45277;-68
2023/08/27 02:52:47;;;;;;;;;1.00;1.00;;;;;18.64;58.70;100608.34;5056917;28;65856;-69
2023/08/27 02:55:12;;;;;;;;;0.00;0.00;;;;;18.36;58.67;100557.19;5057542;28;45336;-66
2023/08/27 02:57:37;;;;;;;;;0.00;0.00;;;;;18.52;58.75;100597.25;5057889;28;45506;-69
2023/08/27 03:00:04;;;;;;;;;1.75;1.00;;;;;18.50;58.61;100596.63;5057791;28;45339;-68
2023/08/27 03:02:30;;;;;;;;;0.00;0.00;;;;;18.43;58.82;100587.69;5056086;28;47593;-68
2023/08/27 03:04:57;;;;;;;;;0.00;0.00;;;;;18.52;58.97;100594.56;5057603;28;45201;-67
2023/08/27 03:07:23;;;;;;;;;3.00;1.00;;;;;18.50;58.95;100588.53;5057847;28;45543;-68
2023/08/27 03:09:48;;;;;;;;;1.00;1.00;;;;;18.53;58.54;100607.00;5078180;27;45366;-69
2023/08/27 03:12:14;;;;;;;;;0.00;0.00;;;;;18.55;58.65;100604.94;5075687;27;45593;-68
2023/08/27 03:14:40;;;;;;;;;0.25;0.25;;;;;18.48;58.80;100596.00;5077557;27;45248;-68
2023/08/27 03:17:06;;;;;;;;;4.00;1.00;;;;;18.50;58.23;100593.94;5077151;27;45373;-68
2023/08/27 03:19:31;;;;;;;;;1.75;1.75;;;;;18.42;58.27;100596.81;5077714;27;45596;-68
2023/08/27 03:21:57;;;;;;;;;1.33;1.33;;;;;18.46;58.64;100606.13;5093264;27;47389;-68
2023/08/27 03:24:22;;;;;;;;;1.00;0.00;;;;;18.35;58.36;100598.59;5077452;27;45362;-68
2023/08/27 03:26:49;;;;;;;;;0.33;0.33;;;;;18.44;58.61;100613.59;5076307;27;45262;-68
2023/08/27 03:29:15;;;;;;;;;0.00;0.00;;;;;18.28;58.61;100599.59;5082639;27;45453;-67
2023/08/27 03:31:40;;;;;;;;;0.25;0.00;;;;;18.38;58.60;100619.75;5056717;28;47458;-69
2023/08/27 03:34:06;;;;;;;;;2.00;1.00;;;;;18.38;58.57;100624.28;5056932;28;45318;-66
2023/08/27 03:36:31;;;;;;;;;0.75;0.75;;;;;17.99;58.97;100565.66;5057230;28;45601;-67
2023/08/27 03:38:57;;;;;;;;;0.00;0.00;;;;;18.26;58.96;100607.06;5056719;28;53299;-67
2023/08/27 03:41:22;;;;;;;;;1.25;0.25;;;;;18.32;59.12;100625.91;5056764;28;46832;-67
2023/08/27 03:43:47;;;;;;;;;3.33;1.00;;;;;18.19;58.74;100607.81;5074052;27;45434;-67
2023/08/27 03:46:13;;;;;;;;;6.00;4.67;;;;;18.18;59.12;100614.22;5077425;27;45814;-68
2023/08/27 03:48:38;;;;;;;;;1.00;1.00;;;;;18.30;58.90;100629.84;5077208;27;45254;-68
2023/08/27 03:51:04;;;;;;;;;1.00;1.00;;;;;18.25;59.26;100625.06;5076948;28;46327;-69
2023/08/27 03:53:29;;;;;;;;;2.00;1.00;;;;;18.31;59.07;100640.41;5077117;27;45235;-69
2023/08/27 03:55:55;;;;;;;;;1.25;1.25;;;;;18.32;58.68;100641.25;5077167;27;45345;-66
2023/08/27 03:58:20;;;;;;;;;1.00;1.00;;;;;18.23;59.20;100636.03;5088980;27;45415;-67
2023/08/27 04:00:47;;;;;;;;;2.00;2.00;;;;;17.96;59.25;100593.78;5060043;28;45635;-69
2023/08/27 04:03:13;;;;;;;;;0.75;0.75;;;;;18.19;59.34;100637.41;5059964;28;45339;-67
2023/08/27 04:05:38;;;;;;;;;0.00;0.00;;;;;18.12;59.65;100630.34;5060132;28;48168;-67
2023/08/27 04:08:04;;;;;;;;;1.00;1.00;;;;;18.10;59.60;100622.47;5060234;28;45170;-67
2023/08/27 04:10:29;;;;;;;;;0.50;0.50;;;;;18.10;59.55;100627.84;5058971;28;46472;-67
2023/08/27 04:12:54;;;;;;;;;4.50;1.00;;;;;17.86;59.37;100596.84;5060183;28;45229;-67
2023/08/27 04:15:20;;;;;;;;;0.00;0.00;;;;;18.02;59.31;100621.75;5070939;28;45304;-68
2023/08/27 04:17:45;;;;;;;;;0.00;0.00;;;;;18.08;59.66;100645.22;5079032;28;45586;-68
2023/08/27 04:20:11;;;;;;;;;1.00;1.00;;;;;17.85;59.85;100619.38;5079482;27;62008;-68
2023/08/27 04:22:36;;;;;;;;;0.00;0.00;;;;;18.05;59.68;100650.97;5080388;27;45251;-68
2023/08/27 04:25:02;;;;;;;;;0.67;0.67;;;;;17.61;59.43;100574.03;5096180;27;45384;-68
2023/08/27 04:27:27;;;;;;;;;0.00;0.00;;;;;17.99;59.93;100652.56;5080684;27;45362;-68
2023/08/27 04:29:52;;;;;;;;;0.50;0.50;;;;;17.88;59.93;100640.50;5080056;27;52742;-68
2023/08/27 04:32:18;;;;;;;;;1.33;1.33;;;;;18.00;59.83;100653.41;5063444;28;45364;-67
2023/08/27 04:34:43;;;;;;;;;1.67;0.67;;;;;17.98;59.94;100650.06;5059709;28;50083;-68
2023/08/27 04:37:08;;;;;;;;;1.50;1.00;;;;;17.99;60.03;100657.13;5060124;28;45327;-68
2023/08/27 04:39:33;;;;;;;;;2.00;0.00;;;;;17.93;60.29;100664.94;5059530;28;45675;-68
2023/08/27 04:41:59;;;;;;;;;0.00;0.00;;;;;17.92;60.36;100652.53;5059802;28;45225;-68
2023/08/27 04:44:26;;;;;;;;;1.75;0.75;;;;;17.90;59.71;100654.59;5058250;28;45203;-69
2023/08/27 04:46:52;;;;;;;;;0.75;0.75;;;;;17.81;60.23;100641.44;5059495;28;45592;-68
2023/08/27 04:49:17;;;;;;;;;1.00;1.00;;;;;17.78;60.43;100642.66;5059302;28;46031;-69
2023/08/27 04:51:42;;;;;;;;;3.67;1.00;;;;;17.86;60.31;100672.13;5059232;28;64441;-68
2023/08/27 04:54:08;;;;;;;;;1.67;1.67;;;;;17.80;60.97;100661.31;5075166;27;45260;-68
2023/08/27 04:56:33;;;;;;;;;0.25;0.25;;;;;17.82;60.73;100672.69;5059733;28;45452;-68
2023/08/27 04:58:58;;;;;;;;;1.75;1.75;;;;;17.81;60.66;100677.25;5059034;28;46402;-68
2023/08/27 05:01:24;;;;;;;;;0.00;0.00;;;;;17.82;60.60;100678.06;5057482;28;53398;-68
2023/08/27 05:03:49;;;;;;;;;1.00;1.00;;;;;17.70;60.99;100661.63;5069646;28;45668;-68
2023/08/27 05:06:15;;;;;;;;;2.00;1.00;;;;;17.81;60.66;100671.03;5078574;27;45648;-68
2023/08/27 05:08:42;;;;;;;;;0.67;0.67;;;;;17.79;60.92;100679.28;5079593;27;46682;-68
2023/08/27 05:11:07;;;;;;;;;0.33;0.33;;;;;17.78;60.70;100666.88;5078608;28;45466;-68
2023/08/27 05:13:33;;;;;;;;;0.50;0.50;;;;;17.82;60.82;100673.56;5062416;27;45403;-67
2023/08/27 05:15:58;;;;;;;;;5.00;1.00;;;;;17.79;60.76;100665.84;5059404;28;45504;-68
2023/08/27 05:18:24;;;;;;;;;0.00;0.00;;;;;17.75;60.78;100669.94;5063865;28;46322;-68
2023/08/27 05:20:49;;;;;;;;;1.75;0.50;;;;;17.84;60.77;100676.88;5079349;27;45371;-69
2023/08/27 05:23:14;;;;;;;;;0.00;0.00;;;;;17.84;60.52;100674.19;5078254;27;45655;-69
2023/08/27 05:25:39;;;;;;;;;0.00;0.00;;;;;17.89;60.74;100677.13;5079395;28;45135;-69
2023/08/27 05:28:05;;;;;;;;;3.00;2.00;;;;;17.54;60.61;100626.91;5079267;27;45886;-67
2023/08/27 05:30:30;;;;;;;;;2.00;2.00;;;;;17.72;60.55;100656.91;5094847;27;45491;-68
2023/08/27 05:32:56;;;;;;;;;1.00;1.00;;;;;17.89;60.65;100685.19;5094937;27;45841;-69
2023/08/27 05:35:22;;;;;;;;;0.75;0.75;;;;;17.94;60.59;100688.13;5066178;27;45414;-68
2023/08/27 05:37:47;;;;;;;;;2.50;2.50;;;;;17.98;60.50;100693.13;5057528;28;46445;-68
2023/08/27 05:40:13;;;;;;;;;1.00;1.00;;;;;17.88;60.38;100672.78;5057053;28;45352;-68
2023/08/27 05:42:38;;;;;;;;;2.00;1.00;;;;;17.87;60.40;100664.91;5058651;28;45319;-68
2023/08/27 05:45:04;;;;;;;;;1.33;1.33;;;;;18.00;59.97;100691.91;5059026;28;45386;-68
2023/08/27 05:47:30;;;;;;;;;4.33;3.33;;;;;18.06;59.90;100687.63;5058078;28;45850;-68
2023/08/27 05:49:55;;;;;;;;;2.25;1.00;;;;;18.05;60.01;100688.66;5057807;28;45695;-69
2023/08/27 05:52:21;;;;;;;;;2.00;1.00;;;;;18.08;60.14;100701.72;5079061;27;45241;-69
2023/08/27 05:54:46;;;;;;;;;2.00;2.00;;;;;18.07;59.64;100681.22;5078893;27;45493;-68
2023/08/27 05:57:11;;;;;;;;;1.25;1.25;;;;;18.14;59.53;100699.06;5078673;27;46336;-69
2023/08/27 05:59:37;;;;;;;;;1.00;1.00;;;;;18.14;59.79;100699.06;5078680;28;45565;-69
2023/08/27 06:02:03;;;;;;;;;1.00;1.00;;;;;18.09;59.87;100696.13;5077358;28;45252;-68
2023/08/27 06:04:28;;;;;;;;;1.00;1.00;;;;;17.97;59.81;100672.63;5094892;27;45520;-69
2023/08/27 06:06:54;;;;;;;;;2.00;1.00;;;;;18.13;59.82;100705.47;5078750;28;45653;-69
2023/08/27 06:09:19;;;;;;;;;1.25;1.25;;;;;18.16;59.83;100701.56;5078710;27;45343;-69
2023/08/27 06:11:45;;;;;;;;;0.75;0.75;;;;;18.07;59.73;100681.22;5082596;27;45292;-68
2023/08/27 06:14:10;;;;;;;;;2.50;1.00;;;;;18.16;59.90;100688.94;5057167;28;45297;-69
2023/08/27 06:16:35;;;;;;;;;1.50;0.75;;;;;17.89;59.33;100644.84;5056895;28;46578;-68
2023/08/27 06:19:01;;;;;;;;;1.67;1.67;;;;;18.24;59.35;100694.19;5057886;28;45482;-68
2023/08/27 06:21:27;;;;;;;;;2.33;1.33;;;;;17.54;59.19;100568.59;5058172;28;45329;-68
2023/08/27 06:23:53;;;;;;;;;0.00;0.00;;;;;18.38;59.15;100710.41;5058482;28;45304;-69
2023/08/27 06:26:18;;;;;;;;;0.00;0.00;;;;;18.39;59.28;100715.59;5058087;28;46484;-68
2023/08/27 06:28:46;;;;;;;;;0.33;0.33;;;;;18.43;59.05;100697.22;5071277;28;45485;-69
2023/08/27 06:31:12;;;;;;;;;0.25;0.25;;;;;18.72;58.80;100713.19;5076588;27;45385;-66
2023/08/27 06:33:38;;;;;;;;;1.00;1.00;;;;;18.97;57.85;100715.38;5060701;27;45165;-66
2023/08/27 06:36:06;;;;;;;;;2.25;0.00;;;;;19.38;57.12;100712.66;5058335;28;47021;-68
2023/08/27 06:38:32;;;;;;;;;2.00;1.00;;;;;19.83;56.02;100713.03;5059107;27;45476;-70
2023/08/27 06:40:58;;;;;;;;;1.00;1.00;;;;;20.33;54.82;100717.81;5057787;28;45585;-68
2023/08/27 06:43:24;;;;;;;;;1.50;1.50;;;;;20.45;53.35;100665.94;5077287;27;45628;-67
2023/08/27 06:45:50;;;;;;;;;1.25;1.25;;;;;21.03;52.39;100703.81;5073337;27;47341;-68
2023/08/27 06:48:15;;;;;;;;;0.75;0.75;;;;;21.50;51.25;100708.00;5057633;28;45364;-70
2023/08/27 06:50:41;;;;;;;;;0.00;0.00;;;;;21.85;50.66;100713.81;5056800;28;45429;-70
2023/08/27 06:53:06;;;;;;;;;0.00;0.00;;;;;22.22;49.52;100716.69;5057983;28;45572;-68
2023/08/27 06:55:31;;;;;;;;;0.25;0.25;;;;;22.58;49.02;100716.75;5057615;28;46360;-69
2023/08/27 06:57:57;;;;;;;;;0.25;0.25;;;;;22.91;47.99;100715.63;5057877;28;45470;-69
2023/08/27 07:00:23;;;;;;;;;0.75;0.75;;;;;23.25;47.53;100720.44;5057412;28;45477;-69
2023/08/27 07:02:49;;;;;;;;;1.75;0.75;;;;;23.60;46.58;100720.63;5057442;28;45173;-70
2023/08/27 07:05:14;;;;;;;;;0.50;0.50;;;;;23.70;45.50;100711.94;5072908;28;48721;-69
2023/08/27 07:07:40;;;;;;;;;0.00;0.00;;;;;24.15;44.96;100728.56;5057336;28;45311;-68
2023/08/27 07:10:07;;;;;;;;;0.75;0.75;;;;;23.31;44.30;100553.22;5057531;28;45328;-70
2023/08/27 07:12:35;;;;;;;;;1.00;0.00;;;;;24.57;43.87;100723.91;5057264;28;45501;-68
2023/08/27 07:15:02;;;;;;;;;1.00;1.00;;;;;24.81;43.04;100727.44;5056181;28;45334;-68
2023/08/27 07:17:28;;;;;;;;;0.00;0.00;;;;;25.20;42.42;100725.03;5055671;28;45556;-67
2023/08/27 07:19:53;;;;;;;;;1.00;1.00;;;;;25.66;41.55;100734.13;5072793;27;45247;-68
2023/08/27 07:22:18;;;;;;;;;1.75;1.00;;;;;25.81;40.76;100731.69;5057207;28;45277;-70
2023/08/27 07:24:44;;;;;;;;;0.00;0.00;;;;;26.06;40.19;100734.88;5056231;28;54814;-70
2023/08/27 07:27:09;;;;;;;;;0.00;0.00;;;;;26.32;39.75;100744.28;5039173;28;45997;-67
2023/08/27 07:29:35;;;;;;;;;1.00;1.00;;;;;26.21;39.73;100698.03;5056098;28;45283;-70
2023/08/27 07:32:00;;;;;;;;;0.25;0.25;;;;;26.58;39.18;100731.09;5056117;28;45739;-68
2023/08/27 07:34:26;;;;;;;;;4.50;1.25;;;;;26.88;38.47;100725.25;5056198;28;45461;-70
2023/08/27 07:36:53;;;;;;;;;0.25;0.25;;;;;26.63;38.35;100641.16;5057133;28;45494;-72
2023/08/27 07:39:18;;;;;;;;;1.00;1.00;;;;;27.44;38.04;100729.53;5057148;28;45419;-70
2023/08/27 07:41:44;;;;;;;;;2.00;2.00;;;;;27.71;37.23;100726.84;5057615;28;45305;-70
2023/08/27 07:44:09;;;;;;;;;1.00;0.00;;;;;27.86;36.78;100709.78;5057065;28;47411;-71
2023/08/27 07:46:34;;;;;;;;;1.00;1.00;;;;;28.25;36.75;100734.19;5072511;28;45483;-69
2023/08/27 07:49:00;;;;;;;;;1.50;0.50;;;;;28.44;35.78;100721.78;5056822;28;45542;-68
2023/08/27 07:51:25;;;;;;;;;3.00;2.50;;;;;28.81;35.17;100738.13;5063471;28;45265;-69
2023/08/27 07:53:51;;;;;;;;;2.00;2.00;;;;;29.02;34.51;100725.41;5062538;27;46405;-70
2023/08/27 07:56:16;;;;;;;;;0.25;0.25;;;;;29.28;33.84;100729.09;5072071;28;45454;-68
2023/08/27 07:58:42;;;;;;;;;0.75;0.75;;;;;29.49;33.63;100727.28;5056726;28;45249;-70
2023/08/27 08:01:07;;;;;;;;;0.00;0.00;;;;;29.35;33.28;100683.91;5057050;28;45239;-69
2023/08/27 08:03:33;;;;;;;;;0.75;0.50;;;;;29.59;32.93;100711.66;5056301;28;45720;-70
2023/08/27 08:05:58;;;;;;;;;1.00;1.00;;;;;29.92;33.09;100710.34;5056580;28;51652;-68
2023/08/27 08:08:23;;;;;;;;;1.25;0.00;;;;;29.76;31.93;100703.19;5056298;28;53029;-68
2023/08/27 08:10:49;;;;;;;;;2.25;1.00;;;;;29.72;32.47;100729.50;5055645;28;45527;-69
2023/08/27 08:13:14;;;;;;;;;2.00;2.00;;;;;29.58;32.89;100701.78;5056707;28;46647;-69
2023/08/27 08:15:39;;;;;;;;;1.50;1.50;;;;;29.50;32.98;100717.97;5056488;28;45331;-70
2023/08/27 08:18:05;;;;;;;;;1.00;1.00;;;;;29.53;33.09;100717.41;5071684;28;45237;-70
2023/08/27 08:20:30;;;;;;;;;2.25;2.00;;;;;29.82;32.98;100714.97;5055302;28;45641;-69
2023/08/27 08:22:55;;;;;;;;;0.00;0.00;;;;;29.81;31.98;100688.66;5056278;28;46476;-70
2023/08/27 08:25:27;;;;;;;;;0.00;0.00;;;;;29.96;32.17;100673.06;5056487;28;45251;-69
2023/08/27 08:27:52;;;;;;;;;2.00;2.00;;;;;30.29;31.73;100709.28;5056063;28;45185;-69
2023/08/27 08:30:17;;;;;;;;;1.00;1.00;;;;;30.45;31.51;100713.66;5055819;28;45867;-69
2023/08/27 08:32:43;;;;;;;;;1.75;1.75;;;;;30.53;30.57;100682.06;5056187;28;45597;-70
2023/08/27 08:35:08;;;;;;;;;0.75;0.75;;;;;30.85;30.05;100703.72;5056128;28;45368;-69
2023/08/27 08:37:33;;;;;;;;;0.00;0.00;;;;;30.90;29.98;100661.69;5056467;28;45540;-68
2023/08/27 08:39:59;;;;;;;;;0.00;0.00;;;;;31.48;29.37;100707.56;5056468;28;45160;-69
2023/08/27 08:42:33;;;;;;;;;1.00;1.00;;;;;31.83;28.97;100688.38;5071605;28;48848;-70
2023/08/27 08:45:09;;;;;;;;;2.00;2.00;;;;;32.02;27.97;100676.38;5056604;28;45469;-71
2023/08/27 08:47:36;;;;;;;;;0.00;0.00;;;;;32.46;28.03;100713.19;5059715;28;45277;-68
2023/08/27 08:50:05;;;;;;;;;0.00;0.00;;;;;32.67;27.73;100715.41;5059861;28;45455;-69
2023/08/27 08:52:38;;;;;;;;;0.00;0.00;;;;;32.81;26.71;100704.53;5075031;28;47554;-70
2023/08/27 08:55:08;;;;;;;;;0.00;0.00;;;;;33.07;26.84;100691.28;5059459;28;45356;-70
2023/08/27 08:57:38;;;;;;;;;1.00;1.00;;;;;33.23;27.02;100672.59;5059736;28;45280;-67
2023/08/27 09:00:04;;;;;;;;;0.00;0.00;;;;;33.62;26.11;100702.66;5059580;28;45324;-68
2023/08/27 09:02:30;;;;;;;;;0.00;0.00;;;;;34.01;25.99;100702.34;5059048;28;46088;-69
2023/08/27 09:04:56;;;;;;;;;1.50;0.00;;;;;34.08;24.86;100669.69;5059220;28;45286;-68
2023/08/27 09:07:24;;;;;;;;;0.25;0.00;;;;;34.32;24.76;100704.59;5059321;28;45319;-69
2023/08/27 09:09:51;;;;;;;;;0.00;0.00;;;;;34.32;24.60;100704.59;5059567;28;45482;-70
2023/08/27 09:12:20;;;;;;;;;0.00;0.00;;;;;34.60;24.56;100706.28;5059306;28;45692;-67
2023/08/27 09:14:47;;;;;;;;;0.33;0.33;;;;;34.46;24.53;100713.75;5061547;28;46540;-69
2023/08/27 09:17:16;;;;;;;;;1.33;0.00;;;;;33.97;24.71;100715.09;5063957;28;45326;-69
2023/08/27 09:19:43;;;;;;;;;1.00;1.00;;;;;33.07;25.80;100679.47;5058069;28;45605;-70
2023/08/27 09:22:09;;;;;;;;;0.33;0.33;;;;;32.51;26.40;100716.69;5088890;27;46989;-69
2023/08/27 09:24:34;;;;;;;;;0.00;0.00;;;;;31.89;27.83;100717.50;5095074;27;45303;-69
2023/08/27 09:27:00;;;;;;;;;0.00;0.00;;;;;31.42;27.89;100716.09;5078047;27;45304;-69
2023/08/27 09:29:26;;;;;;;;;2.00;1.00;;;;;32.02;27.87;100731.38;5079450;28;45498;-70
2023/08/27 09:31:55;;;;;;;;;0.00;0.00;;;;;32.09;27.32;100717.31;5062911;27;47567;-71
2023/08/27 09:34:20;;;;;;;;;0.00;0.00;;;;;32.16;27.22;100737.06;5061236;28;45392;-69
2023/08/27 09:36:46;;;;;;;;;1.00;1.00;;;;;32.21;27.48;100723.25;5077470;27;45645;-69
2023/08/27 09:39:12;;;;;;;;;0.00;0.00;;;;;32.93;26.18;100715.97;5079341;27;45476;-71
2023/08/27 09:41:40;;;;;;;;;0.75;0.25;;;;;33.67;25.60;100734.88;5073910;27;46184;-69
2023/08/27 09:44:07;;;;;;;;;0.33;0.33;;;;;34.28;24.70;100731.97;5058406;28;45426;-70
2023/08/27 09:46:34;;;;;;;;;0.00;0.00;;;;;35.02;23.65;100743.06;5068829;28;45274;-69
2023/08/27 09:49:06;;;;;;;;;0.67;0.67;;;;;35.93;22.96;100743.84;5077309;28;45508;-69
2023/08/27 09:51:37;;;;;;;;;0.00;0.00;;;;;36.48;22.39;100720.63;5078277;27;46836;-69
2023/08/27 09:54:14;;;;;;;;;1.00;1.00;;;;;35.60;22.37;100706.44;5078590;27;45438;-69
2023/08/27 09:56:44;;;;;;;;;0.00;0.00;;;;;34.72;23.35;100705.78;5076763;28;45337;-70
2023/08/27 09:59:09;;;;;;;;;1.00;0.00;;;;;34.91;23.23;100705.72;5094575;27;45493;-67
2023/08/27 10:01:34;;;;;;;;;1.00;0.00;;;;;35.45;22.87;100732.50;5067541;28;46611;-70
2023/08/27 10:04:09;;;;;;;;;1.00;1.00;;;;;35.81;22.49;100735.25;5057354;28;55534;-69
2023/08/27 10:06:38;;;;;;;;;0.00;0.00;;;;;35.87;21.52;100711.91;5057197;28;45445;-71
2023/08/27 10:09:03;;;;;;;;;0.00;0.00;;;;;35.97;21.56;100744.84;5082730;27;45627;-68
2023/08/27 10:11:31;;;;;;;;;0.00;0.00;;;;;35.27;22.10;100687.25;5084515;27;48050;-70
2023/08/27 10:13:58;;;;;;;;;0.33;0.33;;;;;35.12;23.06;100751.16;5073085;27;45357;-69
2023/08/27 10:16:23;;;;;;;;;1.00;1.00;;;;;34.49;22.95;100734.41;5056106;28;45515;-70
2023/08/27 10:18:49;;;;;;;;;0.00;0.00;;;;;33.96;23.86;100746.56;5057897;28;45315;-71
2023/08/27 10:21:14;;;;;;;;;1.00;1.00;;;;;33.08;24.45;100714.97;5073461;27;45656;-71
2023/08/27 10:23:42;;;;;;;;;1.00;1.00;;;;;32.55;24.93;100755.44;5057798;28;45503;-70
2023/08/27 10:26:08;;;;;;;;;0.00;0.00;;;;;31.83;26.45;100754.34;5056827;28;45448;-69
2023/08/27 10:28:35;;;;;;;;;0.67;0.67;;;;;31.23;26.39;100756.28;5058300;28;45322;-71
2023/08/27 10:31:03;;;;;;;;;2.00;1.00;;;;;30.59;27.74;100747.63;5072707;27;46459;-69
2023/08/27 10:33:31;;;;;;;;;2.00;1.00;;;;;30.23;28.37;100754.25;5073019;27;45331;-78
2023/08/27 10:36:10;;;;;;;;;0.00;0.00;;;;;29.81;29.38;100747.03;5073449;27;45497;-78
2023/08/27 10:38:39;;;;;;;;;1.25;0.00;;;;;29.50;29.83;100762.59;5056403;28;45446;-76
2023/08/27 10:41:06;;;;;;;;;2.00;0.67;;;;;29.05;30.23;100766.78;5056098;28;46040;-75
2023/08/27 10:43:35;;;;;;;;;0.00;0.00;;;;;28.76;31.09;100760.81;5057879;28;45411;-79
2023/08/27 10:46:18;;;;;;;;;0.00;0.00;;;;;28.20;31.61;100713.06;5056799;28;45517;-77
2023/08/27 10:48:54;;;;;;;;;0.00;0.00;;;;;28.29;31.89;100747.09;5064795;27;45410;-70
2023/08/27 10:51:23;;;;;;;;;0.00;0.00;;;;;28.18;31.01;100768.00;5072909;28;46914;-69
2023/08/27 10:53:49;;;;;;;;;1.00;0.00;;;;;27.85;30.73;100766.34;5072256;27;45383;-71
2023/08/27 10:56:32;;;;;;;;;1.00;1.00;;;;;27.62;31.65;100765.75;5058052;28;45508;-70
2023/08/27 10:58:59;;;;;;;;;1.00;1.00;;;;;27.28;31.82;100763.19;5058526;28;45479;-71
2023/08/27 11:01:25;;;;;;;;;0.00;0.00;;;;;27.11;31.91;100762.41;5059673;28;45679;-70
2023/08/27 11:03:57;;;;;;;;;1.00;1.00;;;;;26.89;31.73;100765.91;5056010;28;45346;-69
2023/08/27 11:06:36;;;;;;;;;0.00;0.00;;;;;26.67;32.46;100759.59;5057510;28;45233;-71
2023/08/27 11:09:10;;;;;;;;;1.00;0.00;;;;;26.13;32.90;100698.47;5072207;28;45691;-69
2023/08/27 11:11:39;;;;;;;;;2.00;2.00;;;;;26.34;33.40;100750.34;5057080;27;45441;-68
2023/08/27 11:14:10;;;;;;;;;1.00;1.00;;;;;26.09;33.42;100736.28;5056909;28;45300;-69
2023/08/27 11:17:03;;;;;;;;;0.25;0.00;;;;;26.02;33.31;100735.59;5057252;27;45490;-69
2023/08/27 11:19:35;;;;;;;;;2.00;0.00;;;;;25.94;33.12;100736.00;5055740;28;45266;-70
2023/08/27 11:22:10;;;;;;;;;0.00;0.00;;;;;25.96;33.13;100744.75;5056800;28;46944;-68